Time;durP1;ratioP1;P1;durP2;ratioP2;P2;SDS_P1;SDS_P2;PMS_P1;PMS_P2;Temp;Humidity;BMP_temperature;BMP_pressure;BME280_temperature;BME280_humidity;BME280_pressure;Samples;Min_cycle;Max_cycle;Signal;HPM_P1;HPM_P2
2020/12/14 00:00:47;;;;;;;10.48;1.98;;;21.10;99.90;;;;;;5071967;28;20103;-79
2020/12/14 00:03:14;;;;;;;7.35;1.60;;;21.10;99.90;;;;;;5063687;28;20025;-77
2020/12/14 00:05:41;;;;;;;6.15;0.85;;;21.10;99.90;;;;;;5053485;28;20374;-78
2020/12/14 00:08:09;;;;;;;4.63;1.00;;;21.10;99.90;;;;;;5067886;28;20028;-78
2020/12/14 00:10:36;;;;;;;12.40;1.40;;;21.10;99.90;;;;;;5060810;28;20021;-79
2020/12/14 00:13:03;;;;;;;8.18;1.42;;;21.00;99.90;;;;;;5051118;28;20508;-77
2020/12/14 00:15:30;;;;;;;15.07;2.15;;;20.90;99.90;;;;;;5068628;28;20033;-79
2020/12/14 00:17:58;;;;;;;10.85;1.58;;;20.90;99.90;;;;;;5041317;28;20040;-83
2020/12/14 00:20:25;;;;;;;11.77;1.67;;;20.90;99.90;;;;;;5064758;28;20028;-83
2020/12/14 00:22:54;;;;;;;13.05;2.58;;;21.00;99.90;;;;;;5049798;28;20025;-83
2020/12/14 00:25:22;;;;;;;9.40;1.52;;;21.20;99.90;;;;;;5072082;28;20074;-84
2020/12/14 00:27:49;;;;;;;10.15;1.25;;;21.30;99.90;;;;;;5064884;28;20016;-84
2020/12/14 00:30:16;;;;;;;6.82;1.35;;;21.40;99.90;;;;;;5069927;28;20024;-84
2020/12/14 00:32:44;;;;;;;6.35;1.35;;;21.40;99.90;;;;;;5056841;28;20513;-84
2020/12/14 00:35:11;;;;;;;11.95;1.20;;;21.40;99.90;;;;;;5068428;28;20382;-83
2020/12/14 00:37:38;;;;;;;8.32;1.73;;;21.50;99.90;;;;;;5047176;28;20070;-84
2020/12/14 00:40:05;;;;;;;7.78;1.25;;;21.70;99.90;;;;;;5049770;28;20033;-84
2020/12/14 00:42:32;;;;;;;6.60;1.08;;;21.90;99.90;;;;;;5034195;28;20025;-83
2020/12/14 00:45:00;;;;;;;9.07;1.55;;;22.10;99.90;;;;;;5067950;28;20040;-83
2020/12/14 00:47:27;;;;;;;6.65;1.30;;;22.20;99.90;;;;;;5071969;28;20017;-84
2020/12/14 00:49:54;;;;;;;7.22;0.80;;;22.40;99.90;;;;;;5067262;28;20054;-84
2020/12/14 00:52:21;;;;;;;7.35;0.90;;;22.50;99.90;;;;;;5089370;22;20469;-83
2020/12/14 00:54:49;;;;;;;9.48;1.65;;;22.70;99.90;;;;;;5068351;22;20052;-83
2020/12/14 00:57:16;;;;;;;4.32;0.80;;;22.80;99.90;;;;;;5051263;28;20033;-83
2020/12/14 00:59:43;;;;;;;5.00;0.98;;;22.70;99.90;;;;;;5062888;22;20520;-84
2020/12/14 01:02:11;;;;;;;4.18;0.80;;;22.80;99.90;;;;;;5051417;28;20524;-84
2020/12/14 01:04:38;;;;;;;8.05;1.10;;;22.70;99.90;;;;;;5046693;28;20512;-84
2020/12/14 01:07:05;;;;;;;8.13;0.80;;;22.70;99.90;;;;;;5051378;28;20118;-84
2020/12/14 01:09:32;;;;;;;6.65;1.02;;;22.50;99.90;;;;;;5066860;22;20146;-84
2020/12/14 01:12:03;;;;;;;7.32;1.38;;;22.50;99.90;;;;;;5053520;28;20020;-83
2020/12/14 01:14:30;;;;;;;7.75;1.02;;;22.40;99.90;;;;;;5063168;28;20119;-83
2020/12/14 01:16:57;;;;;;;13.95;1.88;;;22.40;99.90;;;;;;5071281;28;20028;-84
2020/12/14 01:19:24;;;;;;;9.40;2.35;;;22.30;99.90;;;;;;5067415;28;20028;-83
2020/12/14 01:21:52;;;;;;;9.75;1.55;;;22.30;99.90;;;;;;5071004;28;20021;-84
2020/12/14 01:24:19;;;;;;;9.80;1.50;;;22.30;99.90;;;;;;5072777;22;20115;-83
2020/12/14 01:26:47;;;;;;;14.23;1.77;;;22.30;99.90;;;;;;5050904;28;20048;-83
2020/12/14 01:29:14;;;;;;;10.52;1.80;;;22.30;99.90;;;;;;5061160;28;20037;-83
2020/12/14 01:31:42;;;;;;;5.85;0.90;;;22.30;99.90;;;;;;5063206;28;20027;-83
2020/12/14 01:34:09;;;;;;;12.50;1.65;;;22.30;99.90;;;;;;5041635;28;20036;-83
2020/12/14 01:36:36;;;;;;;7.95;0.90;;;22.30;99.90;;;;;;5066013;28;20040;-84
2020/12/14 01:39:04;;;;;;;10.40;1.30;;;22.30;99.90;;;;;;5056087;28;20035;-83
2020/12/14 01:41:31;;;;;;;11.93;1.77;;;22.60;99.90;;;;;;5070836;28;20074;-83
2020/12/14 01:43:58;;;;;;;5.95;1.02;;;22.90;99.90;;;;;;5061451;28;20038;-83
2020/12/14 01:46:30;;;;;;;7.53;1.10;;;23.20;99.90;;;;;;5057162;28;20370;-82
2020/12/14 01:49:00;;;;;;;9.65;1.83;;;23.30;99.90;;;;;;5050425;28;20090;-83
2020/12/14 01:51:31;;;;;;;5.53;1.20;;;23.70;99.90;;;;;;5071003;28;20032;-83
2020/12/14 01:54:02;;;;;;;10.57;1.20;;;23.60;99.90;;;;;;5067043;28;20919;-82
2020/12/14 01:56:30;;;;;;;11.80;1.75;;;23.60;99.90;;;;;;5071360;28;20486;-82
2020/12/14 01:58:57;;;;;;;5.95;1.05;;;23.30;99.90;;;;;;5071685;22;20076;-83
2020/12/14 02:01:24;;;;;;;8.52;1.35;;;23.10;99.90;;;;;;5072757;28;20028;-81
2020/12/14 02:03:51;;;;;;;13.43;1.50;;;22.90;99.90;;;;;;5064877;28;20033;-83
2020/12/14 02:06:19;;;;;;;13.57;2.03;;;22.70;99.90;;;;;;5054816;28;20021;-83
2020/12/14 02:08:46;;;;;;;14.48;2.20;;;22.80;99.90;;;;;;5060375;28;20024;-82
2020/12/14 02:11:13;;;;;;;14.85;2.70;;;22.70;99.90;;;;;;5052369;28;20056;-82
2020/12/14 02:13:41;;;;;;;12.27;2.13;;;22.90;99.90;;;;;;5048594;28;20086;-82
2020/12/14 02:16:08;;;;;;;16.08;2.00;;;23.00;99.90;;;;;;5074684;28;20036;-82
2020/12/14 02:18:36;;;;;;;11.18;1.63;;;22.90;99.90;;;;;;5070877;28;20053;-82
2020/12/14 02:21:03;;;;;;;14.30;2.53;;;22.90;99.90;;;;;;5074575;28;20592;-83
2020/12/14 02:23:30;;;;;;;9.98;2.33;;;22.70;99.90;;;;;;5068025;28;20033;-82
2020/12/14 02:25:57;;;;;;;9.90;2.05;;;22.60;99.90;;;;;;5059842;28;20031;-82
2020/12/14 02:28:25;;;;;;;13.55;2.05;;;22.50;99.90;;;;;;5051380;28;20029;-82
2020/12/14 02:30:52;;;;;;;10.77;1.75;;;22.40;99.90;;;;;;5052739;28;20478;-82
2020/12/14 02:33:19;;;;;;;8.70;1.67;;;22.40;99.90;;;;;;5050777;28;20035;-82
2020/12/14 02:35:47;;;;;;;12.95;1.73;;;22.40;99.90;;;;;;5060964;28;20036;-84
2020/12/14 02:38:14;;;;;;;10.45;2.75;;;22.60;99.90;;;;;;5048635;28;20090;-87
2020/12/14 02:40:41;;;;;;;13.10;2.03;;;22.80;99.90;;;;;;5074088;28;20066;-83
2020/12/14 02:43:09;;;;;;;8.10;1.63;;;23.20;99.90;;;;;;5070357;28;20189;-83
2020/12/14 02:45:37;;;;;;;10.50;2.40;;;23.30;99.90;;;;;;5066295;28;20492;-85
2020/12/14 02:48:05;;;;;;;11.85;1.90;;;23.30;99.90;;;;;;5051144;28;20029;-85
2020/12/14 02:50:35;;;;;;;15.82;2.15;;;23.50;99.90;;;;;;5038499;28;20451;-84
2020/12/14 02:53:06;;;;;;;13.25;2.22;;;23.50;99.90;;;;;;5055876;28;20396;-84
2020/12/14 02:55:33;;;;;;;10.38;1.85;;;23.60;99.90;;;;;;5072278;28;20044;-83
2020/12/14 03:00:26;;;;;;;10.73;1.75;;;24.00;99.90;;;;;;5081809;22;20049;-84
2020/12/14 03:02:53;;;;;;;12.25;2.15;;;24.10;99.90;;;;;;5063558;22;20056;-83
2020/12/14 03:05:20;;;;;;;16.10;1.88;;;24.70;99.90;;;;;;5050790;28;20091;-81
2020/12/14 03:07:48;;;;;;;18.52;2.20;;;24.80;99.90;;;;;;5057017;22;20041;-82
2020/12/14 03:10:15;;;;;;;15.70;1.98;;;25.00;99.90;;;;;;5039501;28;20021;-81
2020/12/14 03:12:43;;;;;;;15.18;2.58;;;25.10;99.90;;;;;;5032095;28;20013;-83
2020/12/14 03:15:10;;;;;;;10.57;2.13;;;24.60;99.90;;;;;;5059645;22;20053;-82
2020/12/14 03:17:38;;;;;;;16.60;1.92;;;23.90;99.90;;;;;;5044657;28;20021;-83
2020/12/14 03:20:05;;;;;;;13.23;1.70;;;23.10;99.90;;;;;;5032985;28;20104;-81
2020/12/14 03:22:32;;;;;;;10.75;1.63;;;22.80;99.90;;;;;;5050662;28;20025;-82
2020/12/14 03:24:59;;;;;;;14.40;1.80;;;22.60;99.90;;;;;;5049103;28;20024;-82
2020/12/14 03:27:27;;;;;;;11.80;2.42;;;22.60;99.90;;;;;;5052703;28;20119;-81
2020/12/14 03:29:54;;;;;;;13.52;1.83;;;22.60;99.90;;;;;;5037080;28;20543;-83
2020/12/14 03:32:21;;;;;;;12.65;2.88;;;22.70;99.90;;;;;;5077531;22;20067;-82
2020/12/14 03:34:49;;;;;;;14.75;2.10;;;22.70;99.90;;;;;;5070557;28;20040;-81
2020/12/14 03:37:16;;;;;;;13.85;2.45;;;22.70;99.90;;;;;;5080590;28;20395;-81
2020/12/14 03:39:43;;;;;;;13.82;2.88;;;22.80;99.90;;;;;;5067096;28;20082;-81
2020/12/14 03:42:10;;;;;;;14.13;2.17;;;22.80;99.90;;;;;;5072135;28;20093;-82
2020/12/14 03:44:38;;;;;;;16.65;2.20;;;22.60;99.90;;;;;;5070243;28;20028;-81
2020/12/14 03:47:05;;;;;;;13.73;2.47;;;22.50;99.90;;;;;;5072247;28;20020;-82
2020/12/14 03:49:32;;;;;;;11.05;2.20;;;22.50;99.90;;;;;;5070204;28;20028;-82
2020/12/14 03:51:59;;;;;;;12.25;2.92;;;22.70;99.90;;;;;;5072103;28;20105;-83
2020/12/14 03:54:27;;;;;;;17.48;2.35;;;22.90;99.90;;;;;;5067947;28;20051;-83
2020/12/14 03:56:57;;;;;;;12.13;1.95;;;23.00;99.90;;;;;;5053770;28;20241;-82
2020/12/14 03:59:25;;;;;;;16.75;2.78;;;23.10;99.90;;;;;;5070068;28;20070;-80
2020/12/14 04:01:55;;;;;;;15.57;2.53;;;23.20;99.90;;;;;;5072132;28;20548;-80
2020/12/14 04:04:23;;;;;;;13.32;2.65;;;23.20;99.90;;;;;;5067052;28;20035;-81
2020/12/14 04:06:55;;;;;;;12.88;2.33;;;23.30;99.90;;;;;;5045694;23;20439;-82
2020/12/14 04:09:23;;;;;;;21.30;2.95;;;23.30;99.90;;;;;;5044494;28;20028;-83
2020/12/14 04:11:50;;;;;;;15.45;2.10;;;23.40;99.90;;;;;;5038312;28;20120;-85
2020/12/14 04:14:18;;;;;;;16.88;2.83;;;23.40;99.90;;;;;;5053202;28;20029;-84
2020/12/14 04:16:45;;;;;;;12.98;2.35;;;23.60;99.90;;;;;;5061576;28;20032;-86
2020/12/14 04:19:12;;;;;;;10.95;1.77;;;23.70;99.90;;;;;;5055788;28;20098;-88
2020/12/14 04:21:41;;;;;;;13.55;2.85;;;23.70;99.90;;;;;;5050487;28;20116;-88
2020/12/14 04:24:08;;;;;;;12.05;2.05;;;23.70;99.90;;;;;;5049942;28;20084;-85
2020/12/14 04:26:36;;;;;;;16.13;3.67;;;24.00;99.90;;;;;;5052260;28;20109;-86
2020/12/14 04:29:03;;;;;;;12.15;2.47;;;24.20;99.90;;;;;;5051497;28;20032;-86
2020/12/14 04:31:30;;;;;;;18.75;2.65;;;23.80;99.90;;;;;;5052052;28;20032;-93
2020/12/14 04:33:57;;;;;;;12.60;2.00;;;23.50;99.90;;;;;;5049282;28;20031;-85
2020/12/14 04:36:25;;;;;;;22.17;3.00;;;23.10;99.90;;;;;;5051825;28;20130;-84
2020/12/14 04:38:52;;;;;;;13.35;2.50;;;23.00;99.90;;;;;;5048881;28;20036;-83
2020/12/14 04:41:23;;;;;;;13.20;2.20;;;22.60;99.90;;;;;;5051550;28;20496;-85
2020/12/14 04:43:54;;;;;;;21.13;2.88;;;22.70;99.90;;;;;;5047857;28;20055;-83
2020/12/14 04:46:25;;;;;;;19.55;3.90;;;22.50;99.90;;;;;;5048666;28;20563;-86
2020/12/14 04:48:56;;;;;;;16.67;3.33;;;22.50;99.90;;;;;;5059506;28;20048;-85
2020/12/14 04:51:23;;;;;;;24.25;2.40;;;22.50;99.90;;;;;;5072597;28;20551;-86
2020/12/14 04:53:52;;;;;;;17.25;2.17;;;22.50;99.90;;;;;;5064784;28;20119;-86
2020/12/14 04:56:26;;;;;;;17.27;3.10;;;22.60;99.90;;;;;;5071424;28;20029;-85
2020/12/14 04:58:55;;;;;;;19.83;3.45;;;22.70;99.90;;;;;;5065307;28;20024;-85
2020/12/14 05:01:23;;;;;;;11.55;2.50;;;22.90;99.90;;;;;;5052414;28;20029;-84
2020/12/14 05:03:51;;;;;;;20.15;7.55;;;22.90;99.90;;;;;;5052709;28;20048;-84
2020/12/14 05:06:18;;;;;;;16.33;3.70;;;23.10;99.90;;;;;;5071671;22;20045;-82
2020/12/14 05:08:46;;;;;;;19.10;3.80;;;23.00;99.90;;;;;;5061577;22;20513;-84
2020/12/14 05:11:13;;;;;;;23.00;3.70;;;23.10;99.90;;;;;;5064925;22;20463;-85
2020/12/14 05:13:41;;;;;;;18.30;3.88;;;23.00;99.90;;;;;;5063481;22;20073;-85
2020/12/14 05:16:08;;;;;;;20.30;2.60;;;23.00;99.90;;;;;;5032631;28;20037;-84
2020/12/14 05:18:36;;;;;;;17.33;2.75;;;23.00;99.90;;;;;;5038078;28;20507;-86
2020/12/14 05:21:05;;;;;;;13.45;2.35;;;22.90;99.90;;;;;;5058236;28;20040;-83
2020/12/14 05:23:35;;;;;;;14.60;2.08;;;22.90;99.90;;;;;;5066279;22;20140;-84
2020/12/14 05:26:07;;;;;;;16.98;2.22;;;22.90;99.90;;;;;;5066402;28;20025;-83
2020/12/14 05:28:35;;;;;;;16.45;2.28;;;23.00;99.90;;;;;;5055219;28;20138;-87
2020/12/14 05:31:03;;;;;;;13.75;2.50;;;23.00;99.90;;;;;;5055734;28;20103;-81
2020/12/14 05:33:31;;;;;;;17.38;3.22;;;23.20;99.90;;;;;;5058823;28;20477;-84
2020/12/14 05:35:59;;;;;;;13.73;2.72;;;23.20;99.90;;;;;;5068004;28;20029;-86
2020/12/14 05:38:32;;;;;;;18.17;2.72;;;23.10;99.90;;;;;;5046942;28;20032;-84
2020/12/14 05:41:01;;;;;;;17.10;3.10;;;23.00;99.90;;;;;;5038330;23;21700;-86
2020/12/14 05:43:34;;;;;;;11.48;2.20;;;23.10;99.90;;;;;;5032359;28;20029;-83
2020/12/14 05:46:18;;;;;;;12.32;1.60;;;23.20;99.90;;;;;;5029895;28;20029;-83
2020/12/14 05:48:45;;;;;;;13.18;1.95;;;23.10;99.90;;;;;;5053082;28;20074;-81
2020/12/14 05:51:13;;;;;;;16.67;2.60;;;23.10;99.90;;;;;;5069410;28;20043;-83
2020/12/14 05:53:42;;;;;;;19.83;3.47;;;22.80;99.90;;;;;;5053976;28;20048;-83
2020/12/14 05:56:10;;;;;;;22.17;2.58;;;22.90;99.90;;;;;;5068745;28;20025;-83
2020/12/14 05:58:39;;;;;;;11.80;1.42;;;23.00;99.90;;;;;;5056386;28;20013;-84
2020/12/14 06:01:08;;;;;;;14.88;2.97;;;23.20;99.90;;;;;;5068556;28;20028;-87
2020/12/14 06:03:38;;;;;;;14.13;2.00;;;23.20;99.90;;;;;;5057294;28;20025;-84
2020/12/14 06:06:10;;;;;;;13.05;2.17;;;23.20;99.90;;;;;;5051420;28;20041;-84
2020/12/14 06:08:46;;;;;;;13.82;2.83;;;23.00;99.90;;;;;;5057831;28;20027;-83
2020/12/14 06:11:14;;;;;;;19.10;2.78;;;22.80;99.90;;;;;;5050685;28;20090;-88
2020/12/14 06:13:56;;;;;;;19.85;2.83;;;22.80;99.90;;;;;;5066719;22;20051;-85
2020/12/14 06:16:28;;;;;;;17.92;2.40;;;22.90;99.90;;;;;;5043988;28;20075;-86
2020/12/14 06:18:56;;;;;;;15.98;3.00;;;22.90;99.90;;;;;;5051389;28;20022;-79
2020/12/14 06:21:49;;;;;;;16.50;2.42;;;22.90;99.90;;;;;;5067672;28;20021;-79
2020/12/14 06:24:22;;;;;;;18.85;2.03;;;22.90;99.90;;;;;;5062068;28;20053;-80
2020/12/14 06:26:49;;;;;;;14.67;2.73;;;23.10;99.90;;;;;;5065709;28;20020;-80
2020/12/14 06:29:38;;;;;;;18.70;2.00;;;23.20;99.90;;;;;;5050372;28;20041;-78
2020/12/14 06:32:35;;;;;;;14.27;3.30;;;23.10;99.90;;;;;;5063601;28;20031;-79
2020/12/14 06:35:16;;;;;;;10.88;1.90;;;23.10;99.90;;;;;;5065051;28;20037;-79
2020/12/14 06:38:02;;;;;;;11.48;1.83;;;23.00;99.90;;;;;;5053885;28;20023;-79
2020/12/14 06:40:29;;;;;;;11.20;1.83;;;23.00;99.90;;;;;;5050987;28;20025;-79
2020/12/14 06:42:56;;;;;;;18.42;1.63;;;23.00;99.90;;;;;;5064288;28;20049;-78
2020/12/14 06:45:23;;;;;;;16.25;2.38;;;23.00;99.90;;;;;;5065668;28;20768;-79
2020/12/14 06:47:53;;;;;;;16.70;2.75;;;23.00;99.90;;;;;;5057674;28;20031;-79
2020/12/14 06:50:29;;;;;;;12.43;1.92;;;22.70;99.90;;;;;;5065114;28;20024;-78
2020/12/14 06:52:59;;;;;;;17.83;3.00;;;22.30;99.90;;;;;;5063577;28;20603;-80
2020/12/14 06:55:46;;;;;;;15.30;3.15;;;22.30;99.90;;;;;;5065635;28;20033;-79
2020/12/14 06:58:35;;;;;;;15.02;2.38;;;22.20;99.90;;;;;;5049053;28;20013;-79
2020/12/14 07:01:04;;;;;;;16.33;2.75;;;22.20;99.90;;;;;;5064633;28;20088;-79
2020/12/14 07:03:36;;;;;;;15.55;2.15;;;22.10;99.90;;;;;;5055930;28;20017;-79
2020/12/14 07:06:05;;;;;;;17.77;2.92;;;22.10;99.90;;;;;;5063583;28;20028;-79
2020/12/14 07:08:39;;;;;;;17.77;2.88;;;22.00;99.90;;;;;;5051680;28;20037;-79
2020/12/14 07:11:15;;;;;;;14.73;2.95;;;22.00;99.90;;;;;;5066810;28;20027;-80
2020/12/14 07:13:43;;;;;;;19.80;3.10;;;21.90;99.90;;;;;;5064280;22;20506;-81
2020/12/14 07:16:12;;;;;;;15.15;2.33;;;22.00;99.90;;;;;;5073889;22;20114;-82
2020/12/14 07:18:41;;;;;;;15.23;2.45;;;22.00;99.90;;;;;;5077347;22;20040;-83
2020/12/14 07:21:18;;;;;;;16.67;2.78;;;22.00;99.90;;;;;;5079585;22;20048;-83
2020/12/14 07:23:47;;;;;;;21.77;3.17;;;22.00;99.90;;;;;;5071612;28;20020;-82
2020/12/14 07:26:16;;;;;;;11.95;2.33;;;21.90;99.90;;;;;;5072372;28;20485;-83
2020/12/14 07:28:51;;;;;;;20.23;2.97;;;22.00;99.90;;;;;;5078268;28;20074;-82
2020/12/14 07:31:21;;;;;;;16.38;2.55;;;22.00;99.90;;;;;;5074636;23;20059;-83
2020/12/14 07:34:01;;;;;;;17.70;2.50;;;22.00;99.90;;;;;;5084095;28;20028;-83
2020/12/14 07:36:29;;;;;;;17.05;2.70;;;21.90;99.90;;;;;;5084151;28;20126;-83
2020/12/14 07:38:58;;;;;;;20.35;2.58;;;21.90;99.90;;;;;;5068907;28;20021;-83
2020/12/14 07:41:26;;;;;;;16.77;2.80;;;21.90;99.90;;;;;;5072570;28;20031;-83
2020/12/14 07:43:59;;;;;;;14.93;2.65;;;21.90;99.90;;;;;;5053451;28;20679;-83
2020/12/14 07:46:33;;;;;;;15.85;2.72;;;21.90;99.90;;;;;;5080147;22;20669;-82
2020/12/14 07:49:11;;;;;;;21.77;3.78;;;21.90;99.90;;;;;;5070488;28;20473;-83
2020/12/14 07:51:44;;;;;;;14.43;3.08;;;21.90;99.90;;;;;;5058548;28;20469;-82
2020/12/14 07:54:20;;;;;;;23.70;3.83;;;21.90;99.90;;;;;;5069417;28;20109;-82
2020/12/14 07:56:58;;;;;;;20.75;3.47;;;21.80;99.90;;;;;;5071826;28;20036;-82
2020/12/14 07:59:27;;;;;;;20.02;3.60;;;21.80;99.90;;;;;;5049654;28;20016;-82
2020/12/14 08:01:55;;;;;;;24.05;3.72;;;21.80;99.90;;;;;;5068512;28;20374;-81
2020/12/14 08:04:28;;;;;;;18.25;2.28;;;21.80;99.90;;;;;;5057163;28;20052;-82
2020/12/14 08:06:57;;;;;;;16.65;3.58;;;21.70;99.90;;;;;;5066164;28;20469;-82
2020/12/14 08:09:30;;;;;;;22.25;2.80;;;21.70;99.90;;;;;;5069346;28;20501;-81
2020/12/14 08:11:58;;;;;;;16.42;2.65;;;21.70;99.90;;;;;;5070991;28;20107;-82
2020/12/14 08:14:26;;;;;;;18.95;3.05;;;21.70;99.90;;;;;;5073974;28;20572;-82
2020/12/14 08:16:54;;;;;;;17.02;2.25;;;21.60;99.90;;;;;;5042079;28;20489;-81
2020/12/14 08:19:22;;;;;;;18.63;3.20;;;21.60;99.90;;;;;;5080803;22;20035;-81
2020/12/14 08:22:12;;;;;;;16.25;3.17;;;21.60;99.90;;;;;;5068482;28;20545;-83
2020/12/14 08:24:41;;;;;;;16.00;2.85;;;21.50;99.90;;;;;;5068128;28;20020;-82
2020/12/14 08:27:14;;;;;;;15.82;3.67;;;21.40;99.90;;;;;;5072204;28;20128;-82
2020/12/14 08:30:01;;;;;;;17.05;3.55;;;21.40;99.90;;;;;;5063743;28;20107;-82
2020/12/14 08:32:28;;;;;;;17.85;2.58;;;21.50;99.90;;;;;;5063670;28;20035;-82
2020/12/14 08:34:55;;;;;;;19.77;2.80;;;21.50;99.90;;;;;;5065772;28;20048;-81
2020/12/14 08:37:23;;;;;;;18.63;3.20;;;21.50;99.90;;;;;;5067700;28;20035;-81
2020/12/14 08:40:01;;;;;;;17.67;3.35;;;21.40;99.90;;;;;;5057053;28;20033;-82
2020/12/14 08:42:32;;;;;;;12.07;2.78;;;21.30;99.90;;;;;;5069370;28;20086;-81
2020/12/14 08:45:14;;;;;;;16.85;3.33;;;21.30;99.90;;;;;;5055511;28;20025;-81
2020/12/14 08:47:43;;;;;;;18.05;2.88;;;21.40;99.90;;;;;;5065504;28;20027;-81
2020/12/14 08:50:13;;;;;;;20.70;3.25;;;21.30;99.90;;;;;;5052498;28;20052;-82
2020/12/14 08:52:40;;;;;;;18.20;2.65;;;21.30;99.90;;;;;;5059942;28;20025;-81
2020/12/14 08:55:08;;;;;;;13.55;2.33;;;21.40;99.90;;;;;;5060174;28;20040;-81
2020/12/14 08:57:35;;;;;;;16.27;3.08;;;21.40;99.90;;;;;;5068379;28;20024;-81
2020/12/14 09:00:06;;;;;;;16.85;2.45;;;21.40;99.90;;;;;;5049172;28;20393;-81
2020/12/14 09:02:34;;;;;;;15.77;2.00;;;21.30;99.90;;;;;;5061087;28;20104;-81
2020/12/14 09:05:14;;;;;;;13.52;2.65;;;21.30;99.90;;;;;;5070382;28;20036;-81
2020/12/14 09:07:42;;;;;;;13.70;3.05;;;21.30;99.90;;;;;;5068329;28;20500;-81
2020/12/14 09:10:17;;;;;;;17.65;2.30;;;21.30;99.90;;;;;;5069366;28;20130;-81
2020/12/14 09:12:45;;;;;;;24.33;4.10;;;21.30;99.90;;;;;;5051154;28;20036;-81
2020/12/14 09:15:12;;;;;;;18.70;2.15;;;21.40;99.90;;;;;;5039595;28;20040;-81
2020/12/14 09:17:42;;;;;;;15.95;2.90;;;21.30;99.90;;;;;;5052892;28;20436;-81
2020/12/14 09:20:10;;;;;;;12.48;2.67;;;21.30;99.90;;;;;;5082434;22;20051;-80
2020/12/14 09:22:37;;;;;;;17.50;3.60;;;21.30;99.90;;;;;;5078008;22;20139;-81
2020/12/14 09:25:07;;;;;;;17.38;3.17;;;21.30;99.90;;;;;;5071579;22;20053;-81
2020/12/14 09:27:34;;;;;;;20.75;2.80;;;21.30;99.90;;;;;;5045168;28;20025;-81
2020/12/14 09:30:01;;;;;;;15.25;2.78;;;21.20;99.90;;;;;;5040985;23;20469;-81
2020/12/14 09:32:29;;;;;;;17.08;2.85;;;21.10;99.90;;;;;;5030277;28;20075;-81
2020/12/14 09:34:56;;;;;;;18.50;3.60;;;21.00;99.90;;;;;;5041373;28;20049;-81
2020/12/14 09:37:23;;;;;;;18.55;2.60;;;21.00;99.90;;;;;;5042733;22;20102;-81
2020/12/14 09:39:51;;;;;;;18.63;3.10;;;20.90;99.90;;;;;;5043622;28;20021;-82
2020/12/14 09:42:18;;;;;;;14.07;3.03;;;21.00;99.90;;;;;;5030070;28;20074;-83
2020/12/14 09:44:46;;;;;;;21.40;3.55;;;20.90;99.90;;;;;;5032439;28;20132;-82
2020/12/14 09:47:13;;;;;;;18.77;3.30;;;20.70;99.90;;;;;;5032432;28;20029;-82
2020/12/14 09:49:41;;;;;;;16.75;2.88;;;20.50;99.90;;;;;;5033302;28;20029;-82
2020/12/14 09:52:08;;;;;;;23.23;3.65;;;20.40;99.90;;;;;;5030952;28;20548;-82
2020/12/14 09:54:35;;;;;;;23.15;4.38;;;20.30;99.90;;;;;;5057342;22;20041;-82
2020/12/14 09:57:03;;;;;;;19.80;3.40;;;20.30;99.90;;;;;;5044552;28;20024;-82
2020/12/14 09:59:30;;;;;;;17.73;3.10;;;20.20;99.90;;;;;;5050857;28;20028;-82
2020/12/14 10:01:57;;;;;;;20.80;3.85;;;20.30;99.90;;;;;;5050573;28;20045;-82
2020/12/14 10:04:25;;;;;;;20.98;3.50;;;20.20;99.90;;;;;;5050741;28;20489;-82
2020/12/14 10:06:52;;;;;;;17.73;3.00;;;20.20;99.90;;;;;;5049748;28;20028;-82
2020/12/14 10:09:19;;;;;;;19.45;2.75;;;20.20;99.90;;;;;;5044395;28;20378;-81
2020/12/14 10:11:48;;;;;;;23.10;3.65;;;20.20;99.90;;;;;;5063424;28;20019;-82
2020/12/14 10:14:15;;;;;;;29.05;3.22;;;20.20;99.90;;;;;;5050990;28;20497;-81
2020/12/14 10:16:43;;;;;;;19.98;3.03;;;20.10;99.90;;;;;;5050257;28;20025;-81
2020/12/14 10:19:10;;;;;;;21.83;3.13;;;20.10;99.90;;;;;;5036038;28;20116;-81
2020/12/14 10:21:37;;;;;;;17.58;3.13;;;20.00;99.90;;;;;;5070250;28;20017;-81
2020/12/14 10:24:05;;;;;;;23.67;3.45;;;20.00;99.90;;;;;;5074390;28;20028;-81
2020/12/14 10:26:33;;;;;;;20.13;3.10;;;20.00;99.90;;;;;;5056878;28;20051;-81
2020/12/14 10:29:00;;;;;;;21.25;3.47;;;20.00;99.90;;;;;;5070327;22;20083;-81
2020/12/14 10:31:27;;;;;;;20.60;2.75;;;20.10;99.90;;;;;;5054374;28;20036;-82
2020/12/14 10:33:57;;;;;;;22.13;2.83;;;20.10;99.90;;;;;;5051378;28;20075;-81
2020/12/14 10:36:24;;;;;;;19.55;3.45;;;20.20;99.90;;;;;;5033661;28;20091;-82
2020/12/14 10:38:53;;;;;;;20.27;4.13;;;20.20;99.90;;;;;;5037602;28;20032;-82
2020/12/14 10:41:20;;;;;;;22.25;3.53;;;20.20;99.90;;;;;;5037964;28;20033;-82
2020/12/14 10:43:48;;;;;;;18.13;2.55;;;20.20;99.90;;;;;;5054011;28;20070;-81
2020/12/14 10:46:17;;;;;;;16.95;2.88;;;20.20;99.90;;;;;;5052634;28;20025;-82
2020/12/14 10:48:44;;;;;;;16.05;2.92;;;20.20;99.90;;;;;;5043205;28;20021;-86
2020/12/14 10:51:11;;;;;;;17.80;3.38;;;20.20;99.90;;;;;;5048267;28;20037;-86
2020/12/14 10:53:39;;;;;;;26.48;3.90;;;20.20;99.90;;;;;;5034560;28;20031;-91
2020/12/14 10:56:06;;;;;;;17.25;3.45;;;20.20;99.90;;;;;;5052229;28;20102;-91
2020/12/14 10:58:33;;;;;;;17.35;3.00;;;20.30;99.90;;;;;;5053096;28;20033;-84
2020/12/14 11:01:00;;;;;;;28.08;4.85;;;20.30;99.90;;;;;;5050624;28;20036;-83
2020/12/14 11:03:28;;;;;;;22.08;3.28;;;20.30;99.90;;;;;;5049849;28;20584;-82
2020/12/14 11:05:55;;;;;;;20.17;3.25;;;20.30;99.90;;;;;;5051159;28;20393;-83
2020/12/14 11:08:23;;;;;;;27.27;3.33;;;20.30;99.90;;;;;;5033190;28;20029;-83
2020/12/14 11:10:50;;;;;;;20.50;4.50;;;20.30;99.90;;;;;;5051379;28;20021;-83
2020/12/14 11:13:18;;;;;;;29.08;2.92;;;20.40;99.90;;;;;;5052279;28;20215;-83
2020/12/14 11:15:45;;;;;;;16.05;3.00;;;20.30;99.90;;;;;;5036074;28;20040;-83
2020/12/14 11:18:12;;;;;;;20.83;4.25;;;20.30;99.90;;;;;;5048391;28;20013;-83
2020/12/14 11:20:41;;;;;;;17.73;4.13;;;20.40;99.90;;;;;;5048143;28;20032;-84
2020/12/14 11:23:09;;;;;;;24.45;3.08;;;20.30;99.90;;;;;;5052490;28;20478;-84
2020/12/14 11:25:39;;;;;;;15.20;2.38;;;20.30;99.90;;;;;;5037359;28;20501;-84
2020/12/14 11:28:06;;;;;;;22.85;2.95;;;20.30;99.90;;;;;;5065913;22;20037;-84
2020/12/14 11:30:33;;;;;;;19.33;3.72;;;20.30;99.90;;;;;;5070598;22;20493;-83
2020/12/14 11:33:01;;;;;;;19.52;3.65;;;20.30;99.90;;;;;;5069491;22;20571;-84
2020/12/14 11:35:29;;;;;;;19.23;3.47;;;20.30;99.90;;;;;;5059052;22;20064;-83
2020/12/14 11:37:56;;;;;;;21.83;3.30;;;20.30;99.90;;;;;;5051223;28;20029;-84
2020/12/14 11:40:24;;;;;;;20.40;4.07;;;20.30;99.90;;;;;;5051112;28;20104;-83
2020/12/14 11:42:51;;;;;;;17.65;2.90;;;20.30;99.90;;;;;;5051628;28;20521;-83
2020/12/14 11:45:18;;;;;;;25.92;4.53;;;20.30;99.90;;;;;;5056282;22;20456;-84
2020/12/14 11:47:45;;;;;;;21.08;3.28;;;20.20;99.90;;;;;;5060227;28;20023;-83
2020/12/14 11:50:13;;;;;;;25.95;4.50;;;20.20;99.90;;;;;;5061812;28;20020;-84
2020/12/14 11:52:45;;;;;;;20.83;3.42;;;20.30;99.90;;;;;;5052296;28;20021;-84
2020/12/14 11:55:12;;;;;;;18.08;3.60;;;20.30;99.90;;;;;;5051117;28;20032;-84
2020/12/14 11:57:39;;;;;;;25.98;4.30;;;20.40;99.90;;;;;;5053049;28;20033;-84
2020/12/14 12:00:12;;;;;;;23.38;4.88;;;20.40;99.90;;;;;;5062386;28;20039;-84
2020/12/14 12:02:39;;;;;;;21.38;3.15;;;20.40;99.90;;;;;;5064713;22;20072;-83
2020/12/14 12:05:07;;;;;;;25.50;4.72;;;20.50;99.90;;;;;;5077348;28;20020;-84
2020/12/14 12:07:34;;;;;;;23.33;3.78;;;20.50;99.90;;;;;;5072027;28;20020;-84
2020/12/14 12:10:01;;;;;;;25.42;3.67;;;20.50;99.90;;;;;;5070423;28;20431;-84
2020/12/14 12:12:29;;;;;;;19.10;3.10;;;20.50;99.90;;;;;;5070382;28;20100;-84
2020/12/14 12:14:56;;;;;;;23.60;4.28;;;20.50;99.90;;;;;;5070142;28;20115;-83
2020/12/14 12:17:23;;;;;;;20.92;3.15;;;20.60;99.90;;;;;;5070620;28;20215;-84
2020/12/14 12:19:51;;;;;;;16.70;3.38;;;20.60;99.90;;;;;;5071044;28;20046;-84
2020/12/14 12:22:19;;;;;;;20.33;3.20;;;20.60;99.90;;;;;;5065514;28;20036;-83
2020/12/14 12:24:47;;;;;;;22.25;4.07;;;20.60;99.90;;;;;;5071188;28;20020;-83
2020/12/14 12:27:14;;;;;;;23.85;3.65;;;20.50;99.90;;;;;;5072127;28;20394;-83
2020/12/14 12:29:41;;;;;;;21.45;2.33;;;20.40;99.90;;;;;;5070860;28;20035;-84
2020/12/14 12:32:09;;;;;;;16.45;2.70;;;20.30;99.90;;;;;;5081570;28;20477;-84
2020/12/14 12:34:36;;;;;;;19.25;2.90;;;20.20;99.90;;;;;;5085750;22;20511;-83
2020/12/14 12:37:04;;;;;;;22.85;4.85;;;20.10;99.90;;;;;;5051339;28;20052;-84
2020/12/14 12:39:32;;;;;;;18.83;3.15;;;20.10;99.90;;;;;;5045833;28;20025;-83
2020/12/14 12:41:59;;;;;;;20.48;3.60;;;20.00;99.90;;;;;;5050952;28;20139;-84
2020/12/14 12:44:27;;;;;;;13.57;2.45;;;20.00;99.90;;;;;;5062917;28;20393;-84
2020/12/14 12:46:54;;;;;;;17.77;2.92;;;20.00;99.90;;;;;;5061262;28;20046;-83
2020/12/14 12:49:21;;;;;;;21.48;2.78;;;20.00;99.90;;;;;;5051813;28;20024;-83